sensor_id;sensor_type;location;lat;lon;timestamp;P1;durP1;ratioP1;P2;durP2;ratioP2
30249;SDS011;17064;47.974;13.826;2023-05-10T00:02:51;10.30;;;5.70;;
30249;SDS011;17064;47.974;13.826;2023-05-10T00:07:52;9.43;;;5.60;;
30249;SDS011;17064;47.974;13.826;2023-05-10T00:12:53;14.23;;;6.20;;
30249;SDS011;17064;47.974;13.826;2023-05-10T00:17:54;10.43;;;5.43;;
30249;SDS011;17064;47.974;13.826;2023-05-10T00:22:54;9.25;;;5.65;;
30249;SDS011;17064;47.974;13.826;2023-05-10T00:27:55;9.68;;;5.72;;
30249;SDS011;17064;47.974;13.826;2023-05-10T00:32:57;7.88;;;5.43;;
30249;SDS011;17064;47.974;13.826;2023-05-10T00:37:58;9.93;;;5.63;;
30249;SDS011;17064;47.974;13.826;2023-05-10T00:42:58;7.82;;;5.00;;
30249;SDS011;17064;47.974;13.826;2023-05-10T00:48:03;10.13;;;5.70;;
30249;SDS011;17064;47.974;13.826;2023-05-10T00:53:05;10.48;;;5.10;;
30249;SDS011;17064;47.974;13.826;2023-05-10T00:58:06;7.85;;;4.80;;
30249;SDS011;17064;47.974;13.826;2023-05-10T01:03:06;8.73;;;5.03;;
30249;SDS011;17064;47.974;13.826;2023-05-10T01:08:07;8.85;;;5.50;;
30249;SDS011;17064;47.974;13.826;2023-05-10T01:13:08;7.85;;;4.90;;
30249;SDS011;17064;47.974;13.826;2023-05-10T01:18:10;7.78;;;5.32;;
30249;SDS011;17064;47.974;13.826;2023-05-10T01:33:43;9.48;;;5.22;;
30249;SDS011;17064;47.974;13.826;2023-05-10T01:38:59;12.40;;;6.88;;
30249;SDS011;17064;47.974;13.826;2023-05-10T01:49:25;9.82;;;6.70;;
30249;SDS011;17064;47.974;13.826;2023-05-10T01:54:29;8.73;;;5.97;;
30249;SDS011;17064;47.974;13.826;2023-05-10T01:59:36;9.90;;;5.32;;
30249;SDS011;17064;47.974;13.826;2023-05-10T02:04:42;14.80;;;5.80;;
30249;SDS011;17064;47.974;13.826;2023-05-10T02:09:44;9.98;;;5.70;;
30249;SDS011;17064;47.974;13.826;2023-05-10T02:14:49;10.68;;;6.00;;
30249;SDS011;17064;47.974;13.826;2023-05-10T02:19:52;8.07;;;5.63;;
30249;SDS011;17064;47.974;13.826;2023-05-10T02:25:13;9.02;;;5.50;;
30249;SDS011;17064;47.974;13.826;2023-05-10T02:30:15;10.07;;;6.53;;
30249;SDS011;17064;47.974;13.826;2023-05-10T02:35:18;9.27;;;5.40;;
30249;SDS011;17064;47.974;13.826;2023-05-10T02:40:19;10.35;;;5.55;;
30249;SDS011;17064;47.974;13.826;2023-05-10T02:45:21;8.63;;;5.57;;
30249;SDS011;17064;47.974;13.826;2023-05-10T02:50:27;7.97;;;5.32;;
30249;SDS011;17064;47.974;13.826;2023-05-10T02:55:31;9.88;;;6.32;;
30249;SDS011;17064;47.974;13.826;2023-05-10T03:00:36;9.45;;;5.70;;
30249;SDS011;17064;47.974;13.826;2023-05-10T03:05:37;13.10;;;6.43;;
30249;SDS011;17064;47.974;13.826;2023-05-10T03:10:40;9.90;;;6.28;;
30249;SDS011;17064;47.974;13.826;2023-05-10T03:15:59;11.35;;;5.38;;
30249;SDS011;17064;47.974;13.826;2023-05-10T03:21:11;6.60;;;4.65;;
30249;SDS011;17064;47.974;13.826;2023-05-10T03:31:17;4.78;;;3.70;;
30249;SDS011;17064;47.974;13.826;2023-05-10T03:36:18;6.68;;;3.83;;
30249;SDS011;17064;47.974;13.826;2023-05-10T03:41:19;6.07;;;3.60;;
30249;SDS011;17064;47.974;13.826;2023-05-10T03:46:20;2.85;;;2.30;;
30249;SDS011;17064;47.974;13.826;2023-05-10T03:51:21;5.95;;;3.17;;
30249;SDS011;17064;47.974;13.826;2023-05-10T03:56:22;7.30;;;3.35;;
30249;SDS011;17064;47.974;13.826;2023-05-10T04:01:23;6.85;;;2.78;;
30249;SDS011;17064;47.974;13.826;2023-05-10T04:06:23;6.65;;;3.13;;
30249;SDS011;17064;47.974;13.826;2023-05-10T04:11:24;2.85;;;2.20;;
30249;SDS011;17064;47.974;13.826;2023-05-10T04:16:25;7.47;;;2.40;;
30249;SDS011;17064;47.974;13.826;2023-05-10T04:21:26;2.40;;;1.92;;
30249;SDS011;17064;47.974;13.826;2023-05-10T04:26:26;6.50;;;2.00;;
30249;SDS011;17064;47.974;13.826;2023-05-10T04:31:27;3.50;;;2.03;;
30249;SDS011;17064;47.974;13.826;2023-05-10T04:36:28;2.42;;;1.42;;
30249;SDS011;17064;47.974;13.826;2023-05-10T04:41:29;2.72;;;1.40;;
30249;SDS011;17064;47.974;13.826;2023-05-10T04:46:30;1.60;;;1.20;;
30249;SDS011;17064;47.974;13.826;2023-05-10T04:51:30;3.85;;;1.50;;
30249;SDS011;17064;47.974;13.826;2023-05-10T04:56:31;5.50;;;1.67;;
30249;SDS011;17064;47.974;13.826;2023-05-10T05:01:33;2.38;;;1.48;;
30249;SDS011;17064;47.974;13.826;2023-05-10T05:06:34;3.30;;;1.63;;
30249;SDS011;17064;47.974;13.826;2023-05-10T05:11:35;2.60;;;1.15;;
30249;SDS011;17064;47.974;13.826;2023-05-10T05:16:35;1.30;;;1.20;;
30249;SDS011;17064;47.974;13.826;2023-05-10T05:21:36;2.22;;;1.50;;
30249;SDS011;17064;47.974;13.826;2023-05-10T05:26:37;5.90;;;1.70;;
30249;SDS011;17064;47.974;13.826;2023-05-10T05:31:38;3.45;;;1.73;;
30249;SDS011;17064;47.974;13.826;2023-05-10T05:36:38;2.13;;;1.88;;
30249;SDS011;17064;47.974;13.826;2023-05-10T05:41:39;8.90;;;1.60;;
30249;SDS011;17064;47.974;13.826;2023-05-10T05:46:40;4.07;;;1.83;;
30249;SDS011;17064;47.974;13.826;2023-05-10T05:51:40;1.98;;;1.67;;
30249;SDS011;17064;47.974;13.826;2023-05-10T05:56:41;2.88;;;1.60;;
30249;SDS011;17064;47.974;13.826;2023-05-10T06:01:42;2.65;;;1.58;;
30249;SDS011;17064;47.974;13.826;2023-05-10T06:06:43;3.95;;;1.48;;
30249;SDS011;17064;47.974;13.826;2023-05-10T06:11:44;2.90;;;2.05;;
30249;SDS011;17064;47.974;13.826;2023-05-10T06:16:45;5.53;;;1.90;;
30249;SDS011;17064;47.974;13.826;2023-05-10T06:21:45;4.93;;;1.70;;
30249;SDS011;17064;47.974;13.826;2023-05-10T06:26:46;4.55;;;1.70;;
30249;SDS011;17064;47.974;13.826;2023-05-10T06:31:47;1.80;;;1.38;;
30249;SDS011;17064;47.974;13.826;2023-05-10T06:36:48;4.38;;;1.50;;
30249;SDS011;17064;47.974;13.826;2023-05-10T06:41:48;4.95;;;1.63;;
30249;SDS011;17064;47.974;13.826;2023-05-10T06:46:49;2.30;;;1.60;;
30249;SDS011;17064;47.974;13.826;2023-05-10T06:51:50;3.00;;;1.80;;
30249;SDS011;17064;47.974;13.826;2023-05-10T06:56:51;2.70;;;1.73;;
30249;SDS011;17064;47.974;13.826;2023-05-10T07:01:52;4.97;;;1.98;;
30249;SDS011;17064;47.974;13.826;2023-05-10T07:06:53;2.60;;;1.70;;
30249;SDS011;17064;47.974;13.826;2023-05-10T07:11:54;3.53;;;1.70;;
30249;SDS011;17064;47.974;13.826;2023-05-10T07:16:55;2.22;;;1.30;;
30249;SDS011;17064;47.974;13.826;2023-05-10T07:21:56;2.08;;;1.63;;
30249;SDS011;17064;47.974;13.826;2023-05-10T07:26:56;3.58;;;2.08;;
30249;SDS011;17064;47.974;13.826;2023-05-10T07:31:57;2.58;;;1.95;;
30249;SDS011;17064;47.974;13.826;2023-05-10T07:36:58;3.38;;;1.90;;
30249;SDS011;17064;47.974;13.826;2023-05-10T07:41:59;3.42;;;2.22;;
30249;SDS011;17064;47.974;13.826;2023-05-10T07:47:00;3.63;;;2.33;;
30249;SDS011;17064;47.974;13.826;2023-05-10T07:52:00;2.40;;;2.00;;
30249;SDS011;17064;47.974;13.826;2023-05-10T07:57:03;2.40;;;2.20;;
30249;SDS011;17064;47.974;13.826;2023-05-10T08:02:03;3.72;;;2.60;;
30249;SDS011;17064;47.974;13.826;2023-05-10T08:07:04;2.75;;;2.20;;
30249;SDS011;17064;47.974;13.826;2023-05-10T08:12:05;3.97;;;2.40;;
30249;SDS011;17064;47.974;13.826;2023-05-10T08:17:06;3.13;;;2.33;;
30249;SDS011;17064;47.974;13.826;2023-05-10T08:22:06;8.00;;;2.50;;
30249;SDS011;17064;47.974;13.826;2023-05-10T08:27:08;4.68;;;2.58;;
30249;SDS011;17064;47.974;13.826;2023-05-10T08:32:08;3.78;;;2.50;;
30249;SDS011;17064;47.974;13.826;2023-05-10T08:37:09;3.90;;;2.40;;
30249;SDS011;17064;47.974;13.826;2023-05-10T08:42:12;4.63;;;2.53;;
30249;SDS011;17064;47.974;13.826;2023-05-10T08:47:19;6.50;;;2.58;;
30249;SDS011;17064;47.974;13.826;2023-05-10T08:52:20;4.20;;;2.60;;
30249;SDS011;17064;47.974;13.826;2023-05-10T08:57:23;4.40;;;2.75;;
30249;SDS011;17064;47.974;13.826;2023-05-10T09:02:24;4.22;;;2.75;;
30249;SDS011;17064;47.974;13.826;2023-05-10T09:07:25;3.10;;;2.50;;
30249;SDS011;17064;47.974;13.826;2023-05-10T09:12:27;4.63;;;2.20;;
30249;SDS011;17064;47.974;13.826;2023-05-10T09:17:27;8.68;;;4.18;;
30249;SDS011;17064;47.974;13.826;2023-05-10T09:22:30;7.25;;;3.53;;
30249;SDS011;17064;47.974;13.826;2023-05-10T09:27:31;4.07;;;2.05;;
30249;SDS011;17064;47.974;13.826;2023-05-10T09:37:47;2.35;;;2.05;;
30249;SDS011;17064;47.974;13.826;2023-05-10T09:43:06;4.03;;;2.47;;
30249;SDS011;17064;47.974;13.826;2023-05-10T09:48:07;3.28;;;2.20;;
30249;SDS011;17064;47.974;13.826;2023-05-10T09:53:08;3.65;;;2.10;;
30249;SDS011;17064;47.974;13.826;2023-05-10T09:58:09;2.53;;;2.30;;
30249;SDS011;17064;47.974;13.826;2023-05-10T10:03:14;6.28;;;2.97;;
30249;SDS011;17064;47.974;13.826;2023-05-10T10:08:17;6.30;;;3.15;;
30249;SDS011;17064;47.974;13.826;2023-05-10T10:13:19;5.75;;;3.08;;
30249;SDS011;17064;47.974;13.826;2023-05-10T10:18:20;3.30;;;2.33;;
30249;SDS011;17064;47.974;13.826;2023-05-10T10:23:27;3.63;;;2.20;;
30249;SDS011;17064;47.974;13.826;2023-05-10T10:39:21;7.38;;;2.72;;
30249;SDS011;17064;47.974;13.826;2023-05-10T10:49:22;3.70;;;2.40;;
30249;SDS011;17064;47.974;13.826;2023-05-10T10:54:29;3.50;;;2.63;;
30249;SDS011;17064;47.974;13.826;2023-05-10T10:59:30;3.40;;;2.60;;
30249;SDS011;17064;47.974;13.826;2023-05-10T11:04:38;6.97;;;3.70;;
30249;SDS011;17064;47.974;13.826;2023-05-10T11:09:43;4.93;;;3.10;;
30249;SDS011;17064;47.974;13.826;2023-05-10T11:14:49;3.97;;;2.80;;
30249;SDS011;17064;47.974;13.826;2023-05-10T11:20:06;5.20;;;3.03;;
30249;SDS011;17064;47.974;13.826;2023-05-10T11:25:08;5.53;;;2.92;;
30249;SDS011;17064;47.974;13.826;2023-05-10T11:30:09;5.10;;;2.45;;
30249;SDS011;17064;47.974;13.826;2023-05-10T11:35:11;4.03;;;2.92;;
30249;SDS011;17064;47.974;13.826;2023-05-10T11:40:12;4.55;;;3.50;;
30249;SDS011;17064;47.974;13.826;2023-05-10T11:45:13;5.60;;;2.97;;
30249;SDS011;17064;47.974;13.826;2023-05-10T11:50:14;4.18;;;3.03;;
30249;SDS011;17064;47.974;13.826;2023-05-10T11:55:14;8.38;;;3.05;;
30249;SDS011;17064;47.974;13.826;2023-05-10T12:00:15;6.15;;;3.08;;
30249;SDS011;17064;47.974;13.826;2023-05-10T12:05:16;5.25;;;2.35;;
30249;SDS011;17064;47.974;13.826;2023-05-10T12:10:17;2.95;;;2.38;;
30249;SDS011;17064;47.974;13.826;2023-05-10T12:15:26;3.30;;;1.88;;
30249;SDS011;17064;47.974;13.826;2023-05-10T12:20:28;4.78;;;2.10;;
30249;SDS011;17064;47.974;13.826;2023-05-10T12:25:35;7.13;;;2.40;;
30249;SDS011;17064;47.974;13.826;2023-05-10T12:30:37;2.70;;;2.08;;
30249;SDS011;17064;47.974;13.826;2023-05-10T12:35:54;3.35;;;2.47;;
30249;SDS011;17064;47.974;13.826;2023-05-10T12:40:56;2.60;;;2.00;;
30249;SDS011;17064;47.974;13.826;2023-05-10T12:45:58;3.20;;;1.97;;
30249;SDS011;17064;47.974;13.826;2023-05-10T12:51:04;2.72;;;2.13;;
30249;SDS011;17064;47.974;13.826;2023-05-10T12:56:08;3.40;;;1.85;;
30249;SDS011;17064;47.974;13.826;2023-05-10T13:01:09;6.53;;;2.10;;
30249;SDS011;17064;47.974;13.826;2023-05-10T13:06:10;4.82;;;1.42;;
30249;SDS011;17064;47.974;13.826;2023-05-10T13:11:10;1.70;;;0.90;;
30249;SDS011;17064;47.974;13.826;2023-05-10T13:16:11;2.05;;;1.33;;
30249;SDS011;17064;47.974;13.826;2023-05-10T13:21:12;1.85;;;0.88;;
30249;SDS011;17064;47.974;13.826;2023-05-10T13:26:13;0.90;;;0.50;;
30249;SDS011;17064;47.974;13.826;2023-05-10T13:31:13;1.60;;;0.55;;
30249;SDS011;17064;47.974;13.826;2023-05-10T13:36:14;0.60;;;0.50;;
30249;SDS011;17064;47.974;13.826;2023-05-10T13:41:15;0.75;;;0.50;;
30249;SDS011;17064;47.974;13.826;2023-05-10T13:46:15;0.40;;;0.40;;
30249;SDS011;17064;47.974;13.826;2023-05-10T13:51:16;0.52;;;0.50;;
30249;SDS011;17064;47.974;13.826;2023-05-10T13:56:17;1.48;;;0.75;;
30249;SDS011;17064;47.974;13.826;2023-05-10T14:01:18;0.98;;;0.63;;
30249;SDS011;17064;47.974;13.826;2023-05-10T14:06:19;0.77;;;0.77;;
30249;SDS011;17064;47.974;13.826;2023-05-10T14:11:20;3.03;;;0.70;;
30249;SDS011;17064;47.974;13.826;2023-05-10T14:16:21;2.03;;;0.43;;
30249;SDS011;17064;47.974;13.826;2023-05-10T14:21:22;1.55;;;0.70;;
30249;SDS011;17064;47.974;13.826;2023-05-10T14:26:23;0.60;;;0.45;;
30249;SDS011;17064;47.974;13.826;2023-05-10T14:31:24;0.40;;;0.40;;
30249;SDS011;17064;47.974;13.826;2023-05-10T14:36:25;0.45;;;0.45;;
30249;SDS011;17064;47.974;13.826;2023-05-10T14:41:26;0.75;;;0.50;;
30249;SDS011;17064;47.974;13.826;2023-05-10T14:46:26;1.20;;;0.68;;
30249;SDS011;17064;47.974;13.826;2023-05-10T14:51:27;2.75;;;0.80;;
30249;SDS011;17064;47.974;13.826;2023-05-10T14:56:28;1.30;;;0.95;;
30249;SDS011;17064;47.974;13.826;2023-05-10T15:01:29;1.92;;;0.90;;
30249;SDS011;17064;47.974;13.826;2023-05-10T15:06:32;1.55;;;0.98;;
30249;SDS011;17064;47.974;13.826;2023-05-10T15:11:35;1.10;;;1.00;;
30249;SDS011;17064;47.974;13.826;2023-05-10T15:16:36;1.30;;;1.20;;
30249;SDS011;17064;47.974;13.826;2023-05-10T15:21:37;2.75;;;1.80;;
30249;SDS011;17064;47.974;13.826;2023-05-10T15:26:38;1.63;;;1.50;;
30249;SDS011;17064;47.974;13.826;2023-05-10T15:31:39;1.50;;;1.40;;
30249;SDS011;17064;47.974;13.826;2023-05-10T15:36:41;5.97;;;2.97;;
30249;SDS011;17064;47.974;13.826;2023-05-10T15:41:42;3.97;;;1.85;;
30249;SDS011;17064;47.974;13.826;2023-05-10T15:46:42;2.92;;;2.17;;
30249;SDS011;17064;47.974;13.826;2023-05-10T15:51:43;3.50;;;2.30;;
30249;SDS011;17064;47.974;13.826;2023-05-10T15:56:44;1.70;;;1.60;;
30249;SDS011;17064;47.974;13.826;2023-05-10T16:01:44;2.50;;;1.58;;
30249;SDS011;17064;47.974;13.826;2023-05-10T16:06:45;1.85;;;1.33;;
30249;SDS011;17064;47.974;13.826;2023-05-10T16:11:46;1.00;;;0.70;;
30249;SDS011;17064;47.974;13.826;2023-05-10T16:16:47;0.40;;;0.40;;
30249;SDS011;17064;47.974;13.826;2023-05-10T16:21:48;0.45;;;0.30;;
30249;SDS011;17064;47.974;13.826;2023-05-10T16:26:49;1.08;;;0.57;;
30249;SDS011;17064;47.974;13.826;2023-05-10T16:31:50;0.60;;;0.50;;
30249;SDS011;17064;47.974;13.826;2023-05-10T16:36:50;1.15;;;0.60;;
30249;SDS011;17064;47.974;13.826;2023-05-10T16:41:51;1.30;;;0.75;;
30249;SDS011;17064;47.974;13.826;2023-05-10T16:46:52;1.98;;;0.90;;
30249;SDS011;17064;47.974;13.826;2023-05-10T16:51:53;2.40;;;1.60;;
30249;SDS011;17064;47.974;13.826;2023-05-10T16:56:54;2.45;;;1.42;;
30249;SDS011;17064;47.974;13.826;2023-05-10T17:01:55;1.17;;;1.02;;
30249;SDS011;17064;47.974;13.826;2023-05-10T17:06:55;2.85;;;1.45;;
30249;SDS011;17064;47.974;13.826;2023-05-10T17:11:56;2.97;;;1.77;;
30249;SDS011;17064;47.974;13.826;2023-05-10T17:16:57;4.60;;;1.40;;
30249;SDS011;17064;47.974;13.826;2023-05-10T17:21:58;2.10;;;1.83;;
30249;SDS011;17064;47.974;13.826;2023-05-10T17:26:59;0.98;;;0.80;;
30249;SDS011;17064;47.974;13.826;2023-05-10T17:31:59;2.05;;;0.65;;
30249;SDS011;17064;47.974;13.826;2023-05-10T17:37:00;0.80;;;0.60;;
30249;SDS011;17064;47.974;13.826;2023-05-10T17:42:01;1.23;;;1.13;;
30249;SDS011;17064;47.974;13.826;2023-05-10T17:47:02;1.10;;;0.70;;
30249;SDS011;17064;47.974;13.826;2023-05-10T17:52:03;4.30;;;0.77;;
30249;SDS011;17064;47.974;13.826;2023-05-10T17:57:04;0.60;;;0.50;;
30249;SDS011;17064;47.974;13.826;2023-05-10T18:02:05;1.15;;;0.85;;
30249;SDS011;17064;47.974;13.826;2023-05-10T18:07:06;5.35;;;0.70;;
30249;SDS011;17064;47.974;13.826;2023-05-10T18:12:07;2.05;;;0.52;;
30249;SDS011;17064;47.974;13.826;2023-05-10T18:17:08;3.78;;;0.85;;
30249;SDS011;17064;47.974;13.826;2023-05-10T18:22:09;2.97;;;0.80;;
30249;SDS011;17064;47.974;13.826;2023-05-10T18:27:09;1.80;;;0.95;;
30249;SDS011;17064;47.974;13.826;2023-05-10T18:32:10;1.88;;;0.85;;
30249;SDS011;17064;47.974;13.826;2023-05-10T18:37:11;1.35;;;1.20;;
30249;SDS011;17064;47.974;13.826;2023-05-10T18:42:12;0.98;;;0.82;;
30249;SDS011;17064;47.974;13.826;2023-05-10T18:47:13;1.40;;;0.82;;
30249;SDS011;17064;47.974;13.826;2023-05-10T18:52:14;0.90;;;0.88;;
30249;SDS011;17064;47.974;13.826;2023-05-10T18:57:15;4.43;;;2.00;;
30249;SDS011;17064;47.974;13.826;2023-05-10T19:02:16;2.10;;;1.20;;
30249;SDS011;17064;47.974;13.826;2023-05-10T19:07:16;6.32;;;0.95;;
30249;SDS011;17064;47.974;13.826;2023-05-10T19:12:17;1.42;;;1.13;;
30249;SDS011;17064;47.974;13.826;2023-05-10T19:17:18;1.85;;;1.40;;
30249;SDS011;17064;47.974;13.826;2023-05-10T19:22:19;1.35;;;1.23;;
30249;SDS011;17064;47.974;13.826;2023-05-10T19:27:20;1.17;;;0.80;;
30249;SDS011;17064;47.974;13.826;2023-05-10T19:32:21;2.28;;;1.45;;
30249;SDS011;17064;47.974;13.826;2023-05-10T19:37:22;1.30;;;1.20;;
30249;SDS011;17064;47.974;13.826;2023-05-10T19:42:22;3.47;;;1.45;;
30249;SDS011;17064;47.974;13.826;2023-05-10T19:47:23;1.20;;;1.10;;
30249;SDS011;17064;47.974;13.826;2023-05-10T19:52:23;5.18;;;1.58;;
30249;SDS011;17064;47.974;13.826;2023-05-10T19:57:25;1.85;;;1.65;;
30249;SDS011;17064;47.974;13.826;2023-05-10T20:02:26;2.60;;;1.40;;
30249;SDS011;17064;47.974;13.826;2023-05-10T20:07:27;2.10;;;1.55;;
30249;SDS011;17064;47.974;13.826;2023-05-10T20:12:27;2.40;;;1.67;;
30249;SDS011;17064;47.974;13.826;2023-05-10T20:17:28;2.78;;;1.23;;
30249;SDS011;17064;47.974;13.826;2023-05-10T20:22:29;3.13;;;1.45;;
30249;SDS011;17064;47.974;13.826;2023-05-10T20:27:30;1.98;;;1.65;;
30249;SDS011;17064;47.974;13.826;2023-05-10T20:32:31;3.85;;;1.58;;
30249;SDS011;17064;47.974;13.826;2023-05-10T20:37:32;2.13;;;1.67;;
30249;SDS011;17064;47.974;13.826;2023-05-10T20:42:33;9.10;;;2.90;;
30249;SDS011;17064;47.974;13.826;2023-05-10T20:47:34;3.38;;;1.88;;
30249;SDS011;17064;47.974;13.826;2023-05-10T20:52:35;1.70;;;1.50;;
30249;SDS011;17064;47.974;13.826;2023-05-10T20:57:36;1.50;;;1.00;;
30249;SDS011;17064;47.974;13.826;2023-05-10T21:02:37;3.83;;;1.67;;
30249;SDS011;17064;47.974;13.826;2023-05-10T21:07:40;2.08;;;1.38;;
30249;SDS011;17064;47.974;13.826;2023-05-10T21:12:41;3.17;;;1.33;;
30249;SDS011;17064;47.974;13.826;2023-05-10T21:17:42;1.42;;;1.00;;
30249;SDS011;17064;47.974;13.826;2023-05-10T21:22:44;2.67;;;0.60;;
30249;SDS011;17064;47.974;13.826;2023-05-10T21:27:44;0.85;;;0.70;;
30249;SDS011;17064;47.974;13.826;2023-05-10T21:32:46;0.75;;;0.70;;
30249;SDS011;17064;47.974;13.826;2023-05-10T21:37:46;0.70;;;0.60;;
30249;SDS011;17064;47.974;13.826;2023-05-10T21:42:47;0.50;;;0.50;;
30249;SDS011;17064;47.974;13.826;2023-05-10T21:47:48;0.88;;;0.80;;
30249;SDS011;17064;47.974;13.826;2023-05-10T21:52:49;0.52;;;0.50;;
30249;SDS011;17064;47.974;13.826;2023-05-10T21:57:50;2.60;;;0.47;;
30249;SDS011;17064;47.974;13.826;2023-05-10T22:02:50;0.57;;;0.50;;
30249;SDS011;17064;47.974;13.826;2023-05-10T22:07:51;0.93;;;0.38;;
30249;SDS011;17064;47.974;13.826;2023-05-10T22:12:52;0.60;;;0.40;;
30249;SDS011;17064;47.974;13.826;2023-05-10T22:17:52;5.10;;;0.90;;
30249;SDS011;17064;47.974;13.826;2023-05-10T22:22:53;1.15;;;0.20;;
30249;SDS011;17064;47.974;13.826;2023-05-10T22:27:55;1.58;;;0.13;;
30249;SDS011;17064;47.974;13.826;2023-05-10T22:32:56;0.88;;;0.20;;
30249;SDS011;17064;47.974;13.826;2023-05-10T22:37:58;0.90;;;0.25;;
30249;SDS011;17064;47.974;13.826;2023-05-10T22:42:59;2.17;;;0.10;;
30249;SDS011;17064;47.974;13.826;2023-05-10T22:48:00;2.38;;;0.10;;
30249;SDS011;17064;47.974;13.826;2023-05-10T22:53:03;0.85;;;0.17;;
30249;SDS011;17064;47.974;13.826;2023-05-10T22:58:04;0.32;;;0.20;;
30249;SDS011;17064;47.974;13.826;2023-05-10T23:03:05;0.25;;;0.20;;
30249;SDS011;17064;47.974;13.826;2023-05-10T23:08:06;0.63;;;0.20;;
30249;SDS011;17064;47.974;13.826;2023-05-10T23:13:07;0.10;;;0.10;;
30249;SDS011;17064;47.974;13.826;2023-05-10T23:18:07;0.10;;;0.10;;
30249;SDS011;17064;47.974;13.826;2023-05-10T23:23:09;0.25;;;0.10;;
30249;SDS011;17064;47.974;13.826;2023-05-10T23:28:10;0.20;;;0.20;;
30249;SDS011;17064;47.974;13.826;2023-05-10T23:33:10;0.20;;;0.10;;
30249;SDS011;17064;47.974;13.826;2023-05-10T23:38:13;1.07;;;0.33;;
30249;SDS011;17064;47.974;13.826;2023-05-10T23:43:14;0.50;;;0.20;;
30249;SDS011;17064;47.974;13.826;2023-05-10T23:48:16;1.85;;;0.28;;
30249;SDS011;17064;47.974;13.826;2023-05-10T23:53:17;0.28;;;0.20;;
30249;SDS011;17064;47.974;13.826;2023-05-10T23:58:18;0.75;;;0.30;;
